N44CK KL19-KSFO
Flight info
| Callsign | N44CK |
|---|---|
| Flight time | 0h 54m |
| Altitude | 24000 |
| Route | COREZ AVE J6 ROBIE SERFR WWAVS2 |
| Aircraft | C525/L-SDFGRWY/S |
Departure
| Time | 2026-04-20 23:13 |
|---|---|
| Airport | Wasco Kern County Airport (KL19) |
Arrival
| Time | 2026-04-21 00:07 |
|---|---|
| Airport | San Francisco International Airport (KSFO) |
| Time | Latitude | Longitude | Altitude | Speed | Heading |
|---|---|---|---|---|---|
| 2026-04-20 23:02 | 35.62104 | -119.34967 | 317 ft | 0 kts | 270° |
| 2026-04-20 23:08 | 35.62104 | -119.34972 | 317 ft | 1 kts | 257° |
| 2026-04-20 23:08 | 35.62089 | -119.34988 | 317 ft | 2 kts | 200° |
| 2026-04-20 23:08 | 35.62074 | -119.34990 | 317 ft | 1 kts | 181° |
| 2026-04-20 23:09 | 35.62062 | -119.34990 | 317 ft | 2 kts | 180° |
| 2026-04-20 23:09 | 35.62035 | -119.34990 | 317 ft | 5 kts | 181° |
| 2026-04-20 23:09 | 35.61993 | -119.34990 | 317 ft | 5 kts | 180° |
| 2026-04-20 23:09 | 35.61955 | -119.34991 | 317 ft | 5 kts | 181° |
| 2026-04-20 23:10 | 35.61907 | -119.34991 | 317 ft | 8 kts | 181° |
| 2026-04-20 23:10 | 35.61842 | -119.34992 | 318 ft | 9 kts | 181° |
| 2026-04-20 23:10 | 35.61780 | -119.34992 | 318 ft | 7 kts | 180° |
| 2026-04-20 23:10 | 35.61730 | -119.34992 | 318 ft | 6 kts | 182° |
| 2026-04-20 23:11 | 35.61684 | -119.34994 | 318 ft | 7 kts | 179° |
| 2026-04-20 23:11 | 35.61649 | -119.34982 | 318 ft | 0 kts | 72° |
| 2026-04-20 23:11 | 35.61657 | -119.34975 | 318 ft | 2 kts | 340° |
| 2026-04-20 23:11 | 35.61659 | -119.34977 | 318 ft | 0 kts | 316° |
| 2026-04-20 23:12 | 35.61703 | -119.35030 | 318 ft | 41 kts | 316° |
| 2026-04-20 23:12 | 35.62122 | -119.35528 | 330 ft | 118 kts | 317° |
| 2026-04-20 23:12 | 35.62739 | -119.36180 | 882 ft | 126 kts | 321° |
| 2026-04-20 23:13 | 35.63358 | -119.36998 | 1503 ft | 136 kts | 294° |
| 2026-04-20 23:13 | 35.63317 | -119.38210 | 2094 ft | 159 kts | 246° |
| 2026-04-20 23:13 | 35.62586 | -119.39249 | 2872 ft | 171 kts | 224° |
| 2026-04-20 23:13 | 35.61641 | -119.40253 | 3578 ft | 186 kts | 225° |
| 2026-04-20 23:14 | 35.60716 | -119.41299 | 4533 ft | 185 kts | 224° |
| 2026-04-20 23:14 | 35.59774 | -119.42426 | 5273 ft | 194 kts | 225° |
| 2026-04-20 23:14 | 35.58920 | -119.43640 | 6158 ft | 191 kts | 227° |
| 2026-04-20 23:14 | 35.58081 | -119.44888 | 6997 ft | 191 kts | 229° |
| 2026-04-20 23:15 | 35.57271 | -119.46177 | 7858 ft | 193 kts | 230° |
| 2026-04-20 23:15 | 35.56486 | -119.47513 | 8719 ft | 195 kts | 233° |
| 2026-04-20 23:15 | 35.56103 | -119.49091 | 9561 ft | 203 kts | 264° |
| 2026-04-20 23:15 | 35.56231 | -119.50789 | 10394 ft | 205 kts | 273° |
| 2026-04-20 23:16 | 35.56491 | -119.52532 | 11131 ft | 209 kts | 275° |
| 2026-04-20 23:16 | 35.56791 | -119.54289 | 11873 ft | 212 kts | 275° |
| 2026-04-20 23:16 | 35.57101 | -119.56035 | 12604 ft | 214 kts | 275° |
| 2026-04-20 23:16 | 35.57420 | -119.57806 | 13341 ft | 214 kts | 275° |
| 2026-04-20 23:17 | 35.57738 | -119.59559 | 14069 ft | 213 kts | 274° |
| 2026-04-20 23:17 | 35.58061 | -119.61333 | 14809 ft | 212 kts | 274° |
| 2026-04-20 23:17 | 35.58378 | -119.63062 | 15531 ft | 209 kts | 274° |
| 2026-04-20 23:17 | 35.58693 | -119.64782 | 16256 ft | 205 kts | 274° |
| 2026-04-20 23:18 | 35.58999 | -119.66441 | 16976 ft | 199 kts | 272° |
| 2026-04-20 23:18 | 35.59295 | -119.68047 | 17683 ft | 192 kts | 271° |
| 2026-04-20 23:18 | 35.59586 | -119.69619 | 18417 ft | 184 kts | 271° |
| 2026-04-20 23:18 | 35.59859 | -119.71093 | 19100 ft | 175 kts | 270° |
| 2026-04-20 23:19 | 35.60120 | -119.72514 | 19705 ft | 169 kts | 269° |
| 2026-04-20 23:19 | 35.60371 | -119.73893 | 20242 ft | 166 kts | 268° |
| 2026-04-20 23:19 | 35.60622 | -119.75284 | 20753 ft | 165 kts | 268° |
| 2026-04-20 23:19 | 35.60867 | -119.76638 | 21255 ft | 162 kts | 267° |
| 2026-04-20 23:20 | 35.61110 | -119.77977 | 21760 ft | 159 kts | 267° |
| 2026-04-20 23:20 | 35.61348 | -119.79295 | 22154 ft | 161 kts | 267° |
| 2026-04-20 23:20 | 35.61586 | -119.80669 | 22435 ft | 171 kts | 267° |
| 2026-04-20 23:20 | 35.61843 | -119.82145 | 22725 ft | 181 kts | 268° |
| 2026-04-20 23:21 | 35.62117 | -119.83701 | 23007 ft | 192 kts | 269° |
| 2026-04-20 23:21 | 35.62410 | -119.85344 | 23291 ft | 202 kts | 270° |
| 2026-04-20 23:21 | 35.62720 | -119.87076 | 23575 ft | 213 kts | 270° |
| 2026-04-20 23:21 | 35.63048 | -119.88900 | 23854 ft | 224 kts | 271° |
| 2026-04-20 23:22 | 35.63393 | -119.90835 | 23959 ft | 242 kts | 272° |
| 2026-04-20 23:22 | 35.63768 | -119.92943 | 23974 ft | 263 kts | 273° |
| 2026-04-20 23:22 | 35.64176 | -119.95220 | 23972 ft | 282 kts | 274° |
| 2026-04-20 23:22 | 35.64635 | -119.97639 | 23963 ft | 302 kts | 277° |
| 2026-04-20 23:23 | 35.65366 | -120.00161 | 23972 ft | 321 kts | 283° |
| 2026-04-20 23:23 | 35.66229 | -120.02804 | 23969 ft | 335 kts | 284° |
| 2026-04-20 23:23 | 35.67138 | -120.05524 | 23973 ft | 346 kts | 284° |
| 2026-04-20 23:23 | 35.68058 | -120.08276 | 23970 ft | 356 kts | 284° |
| 2026-04-20 23:24 | 35.68996 | -120.11079 | 23958 ft | 356 kts | 284° |
| 2026-04-20 23:24 | 35.69943 | -120.13922 | 23964 ft | 357 kts | 284° |
| 2026-04-20 23:24 | 35.70886 | -120.16762 | 23964 ft | 359 kts | 284° |
| 2026-04-20 23:24 | 35.71834 | -120.19630 | 23963 ft | 360 kts | 284° |
| 2026-04-20 23:25 | 35.72772 | -120.22475 | 23962 ft | 361 kts | 284° |
| 2026-04-20 23:25 | 35.73715 | -120.25345 | 23966 ft | 361 kts | 284° |
| 2026-04-20 23:25 | 35.74664 | -120.28236 | 23967 ft | 361 kts | 284° |
| 2026-04-20 23:25 | 35.75590 | -120.31061 | 23964 ft | 359 kts | 284° |
| 2026-04-20 23:26 | 35.76526 | -120.33922 | 23966 ft | 360 kts | 284° |
| 2026-04-20 23:26 | 35.77462 | -120.36789 | 23971 ft | 360 kts | 284° |
| 2026-04-20 23:26 | 35.78401 | -120.39672 | 23964 ft | 362 kts | 284° |
| 2026-04-20 23:26 | 35.79339 | -120.42551 | 23966 ft | 363 kts | 284° |
| 2026-04-20 23:27 | 35.80276 | -120.45434 | 23968 ft | 363 kts | 284° |
| 2026-04-20 23:27 | 35.81221 | -120.48344 | 23969 ft | 364 kts | 284° |
| 2026-04-20 23:27 | 35.82147 | -120.51198 | 23973 ft | 365 kts | 284° |
| 2026-04-20 23:27 | 35.83089 | -120.54102 | 23976 ft | 365 kts | 284° |
| 2026-04-20 23:28 | 35.84036 | -120.57025 | 23981 ft | 365 kts | 284° |
| 2026-04-20 23:28 | 35.84974 | -120.59923 | 23980 ft | 366 kts | 284° |
| 2026-04-20 23:28 | 35.85918 | -120.62844 | 23981 ft | 366 kts | 284° |
| 2026-04-20 23:28 | 35.86854 | -120.65743 | 23980 ft | 365 kts | 283° |
| 2026-04-20 23:29 | 35.87796 | -120.68663 | 23980 ft | 365 kts | 283° |
| 2026-04-20 23:29 | 35.88735 | -120.71574 | 23979 ft | 365 kts | 283° |
| 2026-04-20 23:29 | 35.89663 | -120.74457 | 23973 ft | 364 kts | 283° |
| 2026-04-20 23:29 | 35.90597 | -120.77361 | 23970 ft | 364 kts | 283° |
| 2026-04-20 23:30 | 35.91534 | -120.80276 | 23972 ft | 364 kts | 283° |
| 2026-04-20 23:30 | 35.92464 | -120.83176 | 23971 ft | 364 kts | 283° |
| 2026-04-20 23:30 | 35.93386 | -120.86053 | 23972 ft | 363 kts | 283° |
| 2026-04-20 23:30 | 35.94313 | -120.88944 | 23969 ft | 363 kts | 283° |
| 2026-04-20 23:31 | 35.95241 | -120.91844 | 23970 ft | 364 kts | 283° |
| 2026-04-20 23:31 | 35.96165 | -120.94736 | 23970 ft | 364 kts | 283° |
| 2026-04-20 23:31 | 35.97094 | -120.97647 | 23969 ft | 364 kts | 283° |
| 2026-04-20 23:31 | 35.98033 | -121.00590 | 23968 ft | 365 kts | 283° |
| 2026-04-20 23:32 | 35.98864 | -121.03528 | 23968 ft | 361 kts | 279° |
| 2026-04-20 23:32 | 35.99589 | -121.06468 | 23969 ft | 360 kts | 278° |
| 2026-04-20 23:32 | 36.00297 | -121.09416 | 23965 ft | 360 kts | 278° |
| 2026-04-20 23:32 | 36.01011 | -121.12393 | 23962 ft | 360 kts | 278° |
| 2026-04-20 23:33 | 36.01724 | -121.15362 | 23963 ft | 360 kts | 278° |
| 2026-04-20 23:33 | 36.02439 | -121.18323 | 23961 ft | 360 kts | 278° |
| 2026-04-20 23:33 | 36.03158 | -121.21298 | 23962 ft | 360 kts | 278° |
| 2026-04-20 23:33 | 36.03872 | -121.24242 | 23956 ft | 360 kts | 278° |
| 2026-04-20 23:34 | 36.04595 | -121.27227 | 23958 ft | 360 kts | 278° |
| 2026-04-20 23:34 | 36.05306 | -121.30157 | 23957 ft | 360 kts | 278° |
| 2026-04-20 23:34 | 36.06032 | -121.33136 | 23956 ft | 361 kts | 279° |
| 2026-04-20 23:34 | 36.07237 | -121.35942 | 23951 ft | 383 kts | 301° |
| 2026-04-20 23:35 | 36.09237 | -121.38139 | 23977 ft | 394 kts | 316° |
| 2026-04-20 23:35 | 36.13843 | -121.41936 | 23957 ft | 398 kts | 320° |
| 2026-04-20 23:35 | 36.16212 | -121.43791 | 23951 ft | 398 kts | 320° |
| 2026-04-20 23:36 | 36.18534 | -121.45602 | 23950 ft | 398 kts | 321° |
| 2026-04-20 23:36 | 36.20876 | -121.47430 | 23951 ft | 398 kts | 321° |
| 2026-04-20 23:36 | 36.23213 | -121.49255 | 23955 ft | 397 kts | 320° |
| 2026-04-20 23:36 | 36.25548 | -121.51080 | 23952 ft | 397 kts | 320° |
| 2026-04-20 23:37 | 36.27913 | -121.52930 | 23946 ft | 397 kts | 321° |
| 2026-04-20 23:37 | 36.30249 | -121.54761 | 23940 ft | 397 kts | 320° |
| 2026-04-20 23:37 | 36.32576 | -121.56584 | 23938 ft | 397 kts | 320° |
| 2026-04-20 23:37 | 36.34943 | -121.58442 | 23931 ft | 398 kts | 320° |
| 2026-04-20 23:38 | 36.37263 | -121.60263 | 23935 ft | 397 kts | 320° |
| 2026-04-20 23:38 | 36.39608 | -121.62106 | 23934 ft | 398 kts | 320° |
| 2026-04-20 23:38 | 36.41958 | -121.63953 | 23929 ft | 398 kts | 320° |
| 2026-04-20 23:38 | 36.44288 | -121.65787 | 23935 ft | 398 kts | 319° |
| 2026-04-20 23:39 | 36.46632 | -121.67633 | 23931 ft | 398 kts | 320° |
| 2026-04-20 23:39 | 36.48972 | -121.69478 | 23931 ft | 398 kts | 319° |
| 2026-04-20 23:39 | 36.51322 | -121.71331 | 23803 ft | 399 kts | 320° |
| 2026-04-20 23:39 | 36.53643 | -121.73162 | 23397 ft | 392 kts | 319° |
| 2026-04-20 23:40 | 36.55937 | -121.74971 | 23016 ft | 385 kts | 319° |
| 2026-04-20 23:40 | 36.58167 | -121.76733 | 22585 ft | 384 kts | 319° |
| 2026-04-20 23:40 | 36.60441 | -121.78535 | 22100 ft | 385 kts | 319° |
| 2026-04-20 23:40 | 36.62682 | -121.80313 | 21619 ft | 385 kts | 319° |
| 2026-04-20 23:41 | 36.64958 | -121.82118 | 21132 ft | 385 kts | 320° |
| 2026-04-20 23:41 | 36.67194 | -121.83894 | 20651 ft | 385 kts | 320° |
| 2026-04-20 23:41 | 36.69473 | -121.85702 | 20161 ft | 383 kts | 320° |
| 2026-04-20 23:41 | 36.71690 | -121.87463 | 19679 ft | 380 kts | 319° |
| 2026-04-20 23:42 | 36.73915 | -121.89257 | 19185 ft | 375 kts | 317° |
| 2026-04-20 23:42 | 36.75952 | -121.91254 | 18702 ft | 368 kts | 313° |
| 2026-04-20 23:42 | 36.77901 | -121.93275 | 18222 ft | 365 kts | 311° |
| 2026-04-20 23:42 | 36.79865 | -121.95344 | 17740 ft | 362 kts | 311° |
| 2026-04-20 23:43 | 36.81778 | -121.97366 | 17283 ft | 358 kts | 311° |
| 2026-04-20 23:43 | 36.83658 | -121.99352 | 16791 ft | 355 kts | 312° |
| 2026-04-20 23:43 | 36.85548 | -122.01347 | 16340 ft | 352 kts | 312° |
| 2026-04-20 23:43 | 36.87400 | -122.03302 | 15868 ft | 350 kts | 313° |
| 2026-04-20 23:44 | 36.89257 | -122.05263 | 15409 ft | 348 kts | 313° |
| 2026-04-20 23:44 | 36.91123 | -122.07232 | 14931 ft | 347 kts | 313° |
| 2026-04-20 23:44 | 36.92947 | -122.09161 | 14445 ft | 344 kts | 313° |
| 2026-04-20 23:44 | 36.94784 | -122.11096 | 13951 ft | 340 kts | 314° |
| 2026-04-20 23:45 | 36.96586 | -122.13002 | 13453 ft | 339 kts | 314° |
| 2026-04-20 23:45 | 36.98376 | -122.14896 | 12968 ft | 336 kts | 314° |
| 2026-04-20 23:45 | 37.00142 | -122.16769 | 12486 ft | 334 kts | 314° |
| 2026-04-20 23:45 | 37.01902 | -122.18623 | 11982 ft | 331 kts | 314° |
| 2026-04-20 23:46 | 37.03660 | -122.20484 | 11499 ft | 328 kts | 315° |
| 2026-04-20 23:46 | 37.05393 | -122.22314 | 11068 ft | 324 kts | 314° |
| 2026-04-20 23:46 | 37.07077 | -122.24095 | 10966 ft | 310 kts | 315° |
| 2026-04-20 23:46 | 37.08741 | -122.25863 | 10961 ft | 314 kts | 314° |
| 2026-04-20 23:47 | 37.10441 | -122.27672 | 10961 ft | 326 kts | 315° |
| 2026-04-20 23:47 | 37.12179 | -122.29517 | 10916 ft | 331 kts | 315° |
| 2026-04-20 23:47 | 37.13931 | -122.31427 | 10406 ft | 335 kts | 314° |
| 2026-04-20 23:47 | 37.15631 | -122.33286 | 9898 ft | 320 kts | 314° |
| 2026-04-20 23:48 | 37.17275 | -122.35093 | 9396 ft | 310 kts | 314° |
| 2026-04-20 23:48 | 37.18887 | -122.36866 | 8889 ft | 303 kts | 314° |
| 2026-04-20 23:48 | 37.20456 | -122.38595 | 8393 ft | 299 kts | 314° |
| 2026-04-20 23:48 | 37.22013 | -122.40311 | 7886 ft | 296 kts | 314° |
| 2026-04-20 23:49 | 37.23533 | -122.41987 | 7414 ft | 293 kts | 314° |
| 2026-04-20 23:49 | 37.25047 | -122.43655 | 7029 ft | 286 kts | 315° |
| 2026-04-20 23:49 | 37.26540 | -122.45303 | 6643 ft | 281 kts | 314° |
| 2026-04-20 23:49 | 37.27997 | -122.46909 | 6269 ft | 278 kts | 314° |
| 2026-04-20 23:50 | 37.29431 | -122.48491 | 5999 ft | 273 kts | 314° |
| 2026-04-20 23:50 | 37.30880 | -122.50091 | 5978 ft | 270 kts | 314° |
| 2026-04-20 23:50 | 37.32262 | -122.51614 | 5957 ft | 260 kts | 314° |
| 2026-04-20 23:50 | 37.33590 | -122.53079 | 5955 ft | 252 kts | 314° |
| 2026-04-20 23:51 | 37.34909 | -122.54536 | 5963 ft | 248 kts | 314° |
| 2026-04-20 23:51 | 37.36201 | -122.55968 | 5975 ft | 249 kts | 313° |
| 2026-04-20 23:51 | 37.37510 | -122.57419 | 5971 ft | 250 kts | 314° |
| 2026-04-20 23:51 | 37.38812 | -122.58863 | 5975 ft | 251 kts | 314° |
| 2026-04-20 23:52 | 37.40126 | -122.60319 | 5974 ft | 252 kts | 313° |
| 2026-04-20 23:52 | 37.41456 | -122.61794 | 5977 ft | 252 kts | 314° |
| 2026-04-20 23:52 | 37.42766 | -122.63247 | 5976 ft | 252 kts | 313° |
| 2026-04-20 23:52 | 37.44087 | -122.64712 | 5979 ft | 251 kts | 314° |
| 2026-04-20 23:53 | 37.45402 | -122.66171 | 5976 ft | 250 kts | 313° |
| 2026-04-20 23:53 | 37.46698 | -122.67609 | 5979 ft | 250 kts | 313° |
| 2026-04-20 23:53 | 37.48012 | -122.69069 | 5973 ft | 250 kts | 313° |
| 2026-04-20 23:53 | 37.49304 | -122.70505 | 5974 ft | 250 kts | 313° |
| 2026-04-20 23:54 | 37.50619 | -122.71967 | 5984 ft | 250 kts | 313° |
| 2026-04-20 23:54 | 37.51994 | -122.73329 | 5966 ft | 251 kts | 319° |
| 2026-04-20 23:54 | 37.53401 | -122.74603 | 5981 ft | 251 kts | 320° |
| 2026-04-20 23:54 | 37.54838 | -122.75886 | 5987 ft | 252 kts | 320° |
| 2026-04-20 23:55 | 37.56264 | -122.77162 | 5958 ft | 252 kts | 320° |
| 2026-04-20 23:55 | 37.57716 | -122.78468 | 5951 ft | 251 kts | 320° |
| 2026-04-20 23:55 | 37.59122 | -122.79736 | 5953 ft | 251 kts | 319° |
| 2026-04-20 23:55 | 37.60561 | -122.81042 | 5944 ft | 250 kts | 319° |
| 2026-04-20 23:56 | 37.62036 | -122.82196 | 5926 ft | 255 kts | 337° |
| 2026-04-20 23:56 | 37.63805 | -122.82372 | 5853 ft | 259 kts | 6° |
| 2026-04-20 23:56 | 37.65568 | -122.81976 | 5608 ft | 259 kts | 11° |
| 2026-04-20 23:56 | 37.67332 | -122.81402 | 5196 ft | 259 kts | 14° |
| 2026-04-20 23:57 | 37.69065 | -122.80785 | 4797 ft | 258 kts | 17° |
| 2026-04-20 23:57 | 37.70766 | -122.80154 | 4496 ft | 251 kts | 17° |
| 2026-04-20 23:57 | 37.72398 | -122.79538 | 4439 ft | 234 kts | 17° |
| 2026-04-20 23:57 | 37.73923 | -122.78956 | 4424 ft | 231 kts | 17° |
| 2026-04-20 23:58 | 37.75531 | -122.78335 | 4453 ft | 247 kts | 18° |
| 2026-04-20 23:58 | 37.77221 | -122.77668 | 4459 ft | 258 kts | 18° |
| 2026-04-20 23:58 | 37.78776 | -122.76537 | 4348 ft | 259 kts | 49° |
| 2026-04-20 23:58 | 37.79586 | -122.74635 | 4039 ft | 238 kts | 83° |
| 2026-04-20 23:59 | 37.79427 | -122.72663 | 3688 ft | 218 kts | 116° |
| 2026-04-20 23:59 | 37.78776 | -122.71013 | 3462 ft | 204 kts | 125° |
| 2026-04-20 23:59 | 37.78052 | -122.69550 | 3425 ft | 195 kts | 129° |
| 2026-04-20 23:59 | 37.77260 | -122.68095 | 3463 ft | 203 kts | 130° |
| 2026-04-21 00:00 | 37.76414 | -122.66619 | 3467 ft | 211 kts | 131° |
| 2026-04-21 00:00 | 37.75513 | -122.65096 | 3466 ft | 218 kts | 131° |
| 2026-04-21 00:00 | 37.74611 | -122.63597 | 3450 ft | 212 kts | 132° |
| 2026-04-21 00:00 | 37.73743 | -122.62164 | 3439 ft | 197 kts | 133° |
| 2026-04-21 00:01 | 37.72938 | -122.60804 | 3445 ft | 186 kts | 129° |
| 2026-04-21 00:01 | 37.72306 | -122.59414 | 3319 ft | 185 kts | 123° |
| 2026-04-21 00:01 | 37.71678 | -122.57978 | 3013 ft | 185 kts | 125° |
| 2026-04-21 00:01 | 37.71039 | -122.56576 | 2735 ft | 183 kts | 126° |
| 2026-04-21 00:02 | 37.70374 | -122.55231 | 2502 ft | 179 kts | 127° |
| 2026-04-21 00:02 | 37.69717 | -122.53909 | 2254 ft | 175 kts | 127° |
| 2026-04-21 00:02 | 37.69121 | -122.52644 | 2052 ft | 161 kts | 124° |
| 2026-04-21 00:02 | 37.68600 | -122.51451 | 1804 ft | 154 kts | 124° |
| 2026-04-21 00:03 | 37.68070 | -122.50321 | 1683 ft | 144 kts | 127° |
| 2026-04-21 00:03 | 37.67606 | -122.49329 | 1708 ft | 118 kts | 124° |
| 2026-04-21 00:03 | 37.67261 | -122.48467 | 1553 ft | 102 kts | 124° |
| 2026-04-21 00:03 | 37.66970 | -122.47689 | 1341 ft | 95 kts | 124° |
| 2026-04-21 00:04 | 37.66690 | -122.46925 | 1135 ft | 99 kts | 123° |
| 2026-04-21 00:04 | 37.66385 | -122.46153 | 1080 ft | 97 kts | 127° |
| 2026-04-21 00:04 | 37.66037 | -122.45399 | 1047 ft | 102 kts | 127° |
| 2026-04-21 00:04 | 37.65649 | -122.44613 | 998 ft | 107 kts | 129° |
| 2026-04-21 00:05 | 37.65219 | -122.43851 | 1028 ft | 109 kts | 134° |
| 2026-04-21 00:05 | 37.64757 | -122.43099 | 898 ft | 107 kts | 135° |
| 2026-04-21 00:05 | 37.64299 | -122.42412 | 714 ft | 97 kts | 135° |
| 2026-04-21 00:05 | 37.63891 | -122.41758 | 500 ft | 91 kts | 132° |
| 2026-04-21 00:06 | 37.63565 | -122.41015 | 372 ft | 105 kts | 121° |
| 2026-04-21 00:06 | 37.63234 | -122.40200 | 259 ft | 100 kts | 124° |
| 2026-04-21 00:06 | 37.62928 | -122.39468 | 107 ft | 90 kts | 123° |
| 2026-04-21 00:06 | 37.62653 | -122.38814 | 23 ft | 75 kts | 123° |
| 2026-04-21 00:07 | 37.62447 | -122.38331 | 24 ft | 48 kts | 114° |
| 2026-04-21 00:07 | 37.62419 | -122.38159 | 23 ft | 9 kts | 12° |
| 2026-04-21 00:07 | 37.62480 | -122.38130 | 22 ft | 9 kts | 24° |
| 2026-04-21 00:07 | 37.62537 | -122.38138 | 22 ft | 8 kts | 350° |
| 2026-04-21 00:08 | 37.62586 | -122.38123 | 21 ft | 6 kts | 26° |
| 2026-04-21 00:08 | 37.62607 | -122.38100 | 21 ft | 3 kts | 336° |
| 2026-04-21 00:08 | 37.62602 | -122.38113 | 21 ft | 0 kts | 206° |